sensor_id;sensor_type;location;lat;lon;timestamp;P1;durP1;ratioP1;P2;durP2;ratioP2
53925;SDS011;39836;52.754;6.866;2022-10-31T00:00:20;36.83;;;20.83;;
53925;SDS011;39836;52.754;6.866;2022-10-31T00:02:46;38.15;;;20.95;;
53925;SDS011;39836;52.754;6.866;2022-10-31T00:05:11;31.77;;;19.10;;
53925;SDS011;39836;52.754;6.866;2022-10-31T00:07:37;29.95;;;18.80;;
53925;SDS011;39836;52.754;6.866;2022-10-31T00:10:03;35.03;;;21.17;;
53925;SDS011;39836;52.754;6.866;2022-10-31T00:12:29;29.10;;;17.75;;
53925;SDS011;39836;52.754;6.866;2022-10-31T00:14:55;26.25;;;16.15;;
53925;SDS011;39836;52.754;6.866;2022-10-31T00:17:20;33.83;;;16.42;;
53925;SDS011;39836;52.754;6.866;2022-10-31T00:19:46;26.40;;;17.08;;
53925;SDS011;39836;52.754;6.866;2022-10-31T00:22:12;37.92;;;19.33;;
53925;SDS011;39836;52.754;6.866;2022-10-31T00:24:38;33.40;;;21.20;;
53925;SDS011;39836;52.754;6.866;2022-10-31T00:27:03;33.15;;;21.20;;
53925;SDS011;39836;52.754;6.866;2022-10-31T00:29:29;37.75;;;20.92;;
53925;SDS011;39836;52.754;6.866;2022-10-31T00:31:54;37.20;;;22.33;;
53925;SDS011;39836;52.754;6.866;2022-10-31T00:34:20;46.40;;;23.33;;
53925;SDS011;39836;52.754;6.866;2022-10-31T00:36:46;36.38;;;21.55;;
53925;SDS011;39836;52.754;6.866;2022-10-31T00:39:11;45.60;;;22.73;;
53925;SDS011;39836;52.754;6.866;2022-10-31T00:41:37;38.63;;;21.92;;
53925;SDS011;39836;52.754;6.866;2022-10-31T00:44:03;41.50;;;23.05;;
53925;SDS011;39836;52.754;6.866;2022-10-31T00:46:28;41.47;;;22.95;;
53925;SDS011;39836;52.754;6.866;2022-10-31T00:48:54;40.25;;;23.77;;
53925;SDS011;39836;52.754;6.866;2022-10-31T00:51:20;34.95;;;21.27;;
53925;SDS011;39836;52.754;6.866;2022-10-31T00:53:45;29.80;;;20.83;;
53925;SDS011;39836;52.754;6.866;2022-10-31T00:56:11;32.25;;;20.50;;
53925;SDS011;39836;52.754;6.866;2022-10-31T00:58:37;26.88;;;19.13;;
53925;SDS011;39836;52.754;6.866;2022-10-31T01:01:03;30.95;;;20.10;;
53925;SDS011;39836;52.754;6.866;2022-10-31T01:03:30;28.88;;;18.83;;
53925;SDS011;39836;52.754;6.866;2022-10-31T01:08:24;38.30;;;22.70;;
53925;SDS011;39836;52.754;6.866;2022-10-31T01:13:43;37.97;;;22.23;;
53925;SDS011;39836;52.754;6.866;2022-10-31T01:16:13;39.88;;;23.38;;
53925;SDS011;39836;52.754;6.866;2022-10-31T01:18:41;41.53;;;23.63;;
53925;SDS011;39836;52.754;6.866;2022-10-31T01:21:17;41.00;;;24.92;;
53925;SDS011;39836;52.754;6.866;2022-10-31T01:23:45;34.03;;;23.77;;
53925;SDS011;39836;52.754;6.866;2022-10-31T01:26:12;39.30;;;24.38;;
53925;SDS011;39836;52.754;6.866;2022-10-31T01:28:47;33.45;;;23.75;;
53925;SDS011;39836;52.754;6.866;2022-10-31T01:31:18;37.28;;;21.77;;
53925;SDS011;39836;52.754;6.866;2022-10-31T01:33:45;32.55;;;20.58;;
53925;SDS011;39836;52.754;6.866;2022-10-31T01:36:21;27.02;;;18.48;;
53925;SDS011;39836;52.754;6.866;2022-10-31T01:38:50;23.52;;;14.77;;
53925;SDS011;39836;52.754;6.866;2022-10-31T01:41:19;24.02;;;11.98;;
53925;SDS011;39836;52.754;6.866;2022-10-31T01:43:51;12.98;;;10.43;;
53925;SDS011;39836;52.754;6.866;2022-10-31T01:46:21;15.63;;;11.90;;
53925;SDS011;39836;52.754;6.866;2022-10-31T01:48:50;21.10;;;14.18;;
53925;SDS011;39836;52.754;6.866;2022-10-31T01:51:20;26.15;;;16.55;;
53925;SDS011;39836;52.754;6.866;2022-10-31T01:53:48;25.77;;;14.70;;
53925;SDS011;39836;52.754;6.866;2022-10-31T01:56:16;22.60;;;15.13;;
53925;SDS011;39836;52.754;6.866;2022-10-31T01:58:43;23.10;;;14.50;;
53925;SDS011;39836;52.754;6.866;2022-10-31T02:01:11;24.20;;;16.48;;
53925;SDS011;39836;52.754;6.866;2022-10-31T02:03:39;29.63;;;18.52;;
53925;SDS011;39836;52.754;6.866;2022-10-31T02:06:06;29.20;;;18.65;;
53925;SDS011;39836;52.754;6.866;2022-10-31T02:08:44;25.55;;;16.45;;
53925;SDS011;39836;52.754;6.866;2022-10-31T02:11:10;28.48;;;18.67;;
53925;SDS011;39836;52.754;6.866;2022-10-31T02:13:36;32.10;;;18.90;;
53925;SDS011;39836;52.754;6.866;2022-10-31T02:16:02;29.08;;;18.13;;
53925;SDS011;39836;52.754;6.866;2022-10-31T02:18:29;39.83;;;19.67;;
53925;SDS011;39836;52.754;6.866;2022-10-31T02:21:02;33.10;;;18.95;;
53925;SDS011;39836;52.754;6.866;2022-10-31T02:32:24;31.10;;;19.90;;
53925;SDS011;39836;52.754;6.866;2022-10-31T02:40:39;27.05;;;18.98;;
53925;SDS011;39836;52.754;6.866;2022-10-31T02:48:39;32.78;;;19.15;;
53925;SDS011;39836;52.754;6.866;2022-10-31T02:51:07;33.75;;;17.08;;
53925;SDS011;39836;52.754;6.866;2022-10-31T02:53:35;51.33;;;18.58;;
53925;SDS011;39836;52.754;6.866;2022-10-31T02:58:29;32.95;;;16.00;;
53925;SDS011;39836;52.754;6.866;2022-10-31T03:01:01;25.33;;;15.07;;
53925;SDS011;39836;52.754;6.866;2022-10-31T03:15:46;27.67;;;16.17;;
53925;SDS011;39836;52.754;6.866;2022-10-31T03:18:27;23.50;;;15.70;;
53925;SDS011;39836;52.754;6.866;2022-10-31T03:20:57;23.63;;;15.20;;
53925;SDS011;39836;52.754;6.866;2022-10-31T03:23:59;26.15;;;15.88;;
53925;SDS011;39836;52.754;6.866;2022-10-31T03:26:27;23.27;;;15.43;;
53925;SDS011;39836;52.754;6.866;2022-10-31T03:28:57;22.95;;;15.48;;
53925;SDS011;39836;52.754;6.866;2022-10-31T03:31:28;24.70;;;17.10;;
53925;SDS011;39836;52.754;6.866;2022-10-31T03:33:58;22.45;;;15.30;;
53925;SDS011;39836;52.754;6.866;2022-10-31T03:36:25;23.05;;;16.00;;
53925;SDS011;39836;52.754;6.866;2022-10-31T03:38:55;24.25;;;16.13;;
53925;SDS011;39836;52.754;6.866;2022-10-31T03:41:24;22.88;;;15.02;;
53925;SDS011;39836;52.754;6.866;2022-10-31T03:44:05;26.63;;;15.85;;
53925;SDS011;39836;52.754;6.866;2022-10-31T03:46:34;21.60;;;14.40;;
53925;SDS011;39836;52.754;6.866;2022-10-31T03:49:00;24.65;;;11.45;;
53925;SDS011;39836;52.754;6.866;2022-10-31T03:54:18;18.42;;;12.20;;
53925;SDS011;39836;52.754;6.866;2022-10-31T03:57:05;16.13;;;10.98;;
53925;SDS011;39836;52.754;6.866;2022-10-31T03:59:47;16.52;;;11.80;;
53925;SDS011;39836;52.754;6.866;2022-10-31T04:02:42;15.50;;;11.55;;
53925;SDS011;39836;52.754;6.866;2022-10-31T04:05:16;21.13;;;13.32;;
53925;SDS011;39836;52.754;6.866;2022-10-31T04:07:44;21.60;;;13.82;;
53925;SDS011;39836;52.754;6.866;2022-10-31T04:10:13;26.35;;;18.08;;
53925;SDS011;39836;52.754;6.866;2022-10-31T04:12:40;27.00;;;16.98;;
53925;SDS011;39836;52.754;6.866;2022-10-31T04:15:10;27.50;;;16.83;;
53925;SDS011;39836;52.754;6.866;2022-10-31T04:17:38;30.38;;;17.85;;
53925;SDS011;39836;52.754;6.866;2022-10-31T04:20:06;37.72;;;19.75;;
53925;SDS011;39836;52.754;6.866;2022-10-31T04:22:32;28.02;;;18.73;;
53925;SDS011;39836;52.754;6.866;2022-10-31T04:24:58;23.58;;;17.10;;
53925;SDS011;39836;52.754;6.866;2022-10-31T04:27:24;27.13;;;18.42;;
53925;SDS011;39836;52.754;6.866;2022-10-31T04:29:49;26.48;;;18.88;;
53925;SDS011;39836;52.754;6.866;2022-10-31T04:32:15;41.20;;;20.42;;
53925;SDS011;39836;52.754;6.866;2022-10-31T04:34:41;26.33;;;17.58;;
53925;SDS011;39836;52.754;6.866;2022-10-31T04:37:07;30.40;;;17.88;;
53925;SDS011;39836;52.754;6.866;2022-10-31T04:39:32;27.48;;;17.48;;
53925;SDS011;39836;52.754;6.866;2022-10-31T04:41:58;30.42;;;16.42;;
53925;SDS011;39836;52.754;6.866;2022-10-31T04:44:24;28.58;;;16.30;;
53925;SDS011;39836;52.754;6.866;2022-10-31T04:46:49;29.70;;;14.63;;
53925;SDS011;39836;52.754;6.866;2022-10-31T04:49:15;38.67;;;11.93;;
53925;SDS011;39836;52.754;6.866;2022-10-31T04:51:40;64.13;;;12.80;;
53925;SDS011;39836;52.754;6.866;2022-10-31T04:54:06;76.47;;;14.32;;
53925;SDS011;39836;52.754;6.866;2022-10-31T04:56:32;311.92;;;20.52;;
53925;SDS011;39836;52.754;6.866;2022-10-31T04:58:58;67.97;;;16.33;;
53925;SDS011;39836;52.754;6.866;2022-10-31T05:01:23;54.60;;;17.85;;
53925;SDS011;39836;52.754;6.866;2022-10-31T05:03:49;37.28;;;18.30;;
53925;SDS011;39836;52.754;6.866;2022-10-31T05:06:15;222.25;;;28.13;;
53925;SDS011;39836;52.754;6.866;2022-10-31T05:08:41;95.40;;;21.48;;
53925;SDS011;39836;52.754;6.866;2022-10-31T05:11:07;75.72;;;21.42;;
53925;SDS011;39836;52.754;6.866;2022-10-31T05:13:32;53.75;;;19.00;;
53925;SDS011;39836;52.754;6.866;2022-10-31T05:15:58;187.70;;;21.08;;
53925;SDS011;39836;52.754;6.866;2022-10-31T05:18:24;155.95;;;20.30;;
53925;SDS011;39836;52.754;6.866;2022-10-31T05:20:49;185.13;;;19.05;;
53925;SDS011;39836;52.754;6.866;2022-10-31T05:23:15;145.68;;;19.52;;
53925;SDS011;39836;52.754;6.866;2022-10-31T05:25:41;105.03;;;20.65;;
53925;SDS011;39836;52.754;6.866;2022-10-31T05:28:07;88.90;;;21.48;;
53925;SDS011;39836;52.754;6.866;2022-10-31T05:30:33;34.30;;;19.33;;
53925;SDS011;39836;52.754;6.866;2022-10-31T05:32:59;30.15;;;21.30;;
53925;SDS011;39836;52.754;6.866;2022-10-31T05:35:26;51.47;;;23.42;;
53925;SDS011;39836;52.754;6.866;2022-10-31T05:37:53;31.02;;;21.80;;
53925;SDS011;39836;52.754;6.866;2022-10-31T05:40:19;53.03;;;22.20;;
53925;SDS011;39836;52.754;6.866;2022-10-31T05:42:46;62.53;;;21.23;;
53925;SDS011;39836;52.754;6.866;2022-10-31T05:45:13;38.75;;;21.88;;
53925;SDS011;39836;52.754;6.866;2022-10-31T05:47:40;28.80;;;20.58;;
53925;SDS011;39836;52.754;6.866;2022-10-31T05:50:06;74.32;;;21.77;;
53925;SDS011;39836;52.754;6.866;2022-10-31T05:52:33;38.00;;;20.95;;
53925;SDS011;39836;52.754;6.866;2022-10-31T05:54:59;31.73;;;21.25;;
53925;SDS011;39836;52.754;6.866;2022-10-31T05:57:25;32.33;;;21.83;;
53925;SDS011;39836;52.754;6.866;2022-10-31T05:59:50;36.17;;;22.42;;
53925;SDS011;39836;52.754;6.866;2022-10-31T06:02:19;32.17;;;21.42;;
53925;SDS011;39836;52.754;6.866;2022-10-31T06:04:45;32.70;;;21.38;;
53925;SDS011;39836;52.754;6.866;2022-10-31T06:07:11;28.27;;;20.52;;
53925;SDS011;39836;52.754;6.866;2022-10-31T06:09:37;33.20;;;24.13;;
53925;SDS011;39836;52.754;6.866;2022-10-31T06:12:02;32.33;;;22.08;;
53925;SDS011;39836;52.754;6.866;2022-10-31T06:14:28;31.27;;;21.83;;
53925;SDS011;39836;52.754;6.866;2022-10-31T06:16:54;32.90;;;20.77;;
53925;SDS011;39836;52.754;6.866;2022-10-31T06:19:20;33.50;;;20.48;;
53925;SDS011;39836;52.754;6.866;2022-10-31T06:21:46;28.20;;;18.70;;
53925;SDS011;39836;52.754;6.866;2022-10-31T06:24:12;34.97;;;20.65;;
53925;SDS011;39836;52.754;6.866;2022-10-31T06:26:38;28.80;;;20.80;;
53925;SDS011;39836;52.754;6.866;2022-10-31T06:29:03;29.60;;;19.40;;
53925;SDS011;39836;52.754;6.866;2022-10-31T06:31:29;29.23;;;20.55;;
53925;SDS011;39836;52.754;6.866;2022-10-31T06:33:55;28.08;;;19.45;;
53925;SDS011;39836;52.754;6.866;2022-10-31T06:36:21;29.98;;;20.13;;
53925;SDS011;39836;52.754;6.866;2022-10-31T06:38:46;32.75;;;20.33;;
53925;SDS011;39836;52.754;6.866;2022-10-31T06:41:12;28.90;;;19.60;;
53925;SDS011;39836;52.754;6.866;2022-10-31T06:43:38;30.77;;;20.48;;
53925;SDS011;39836;52.754;6.866;2022-10-31T06:46:04;32.47;;;22.13;;
53925;SDS011;39836;52.754;6.866;2022-10-31T06:48:30;27.48;;;19.75;;
53925;SDS011;39836;52.754;6.866;2022-10-31T06:51:00;35.47;;;21.48;;
53925;SDS011;39836;52.754;6.866;2022-10-31T06:53:26;28.00;;;16.25;;
53925;SDS011;39836;52.754;6.866;2022-10-31T06:55:57;25.27;;;15.90;;
53925;SDS011;39836;52.754;6.866;2022-10-31T06:58:23;25.20;;;17.08;;
53925;SDS011;39836;52.754;6.866;2022-10-31T07:00:49;27.67;;;18.30;;
53925;SDS011;39836;52.754;6.866;2022-10-31T07:03:15;26.92;;;19.30;;
53925;SDS011;39836;52.754;6.866;2022-10-31T07:05:42;27.55;;;20.42;;
53925;SDS011;39836;52.754;6.866;2022-10-31T07:08:09;27.55;;;18.45;;
53925;SDS011;39836;52.754;6.866;2022-10-31T07:10:37;26.60;;;19.95;;
53925;SDS011;39836;52.754;6.866;2022-10-31T07:13:04;27.50;;;18.67;;
53925;SDS011;39836;52.754;6.866;2022-10-31T07:15:35;27.67;;;18.75;;
53925;SDS011;39836;52.754;6.866;2022-10-31T07:18:06;28.77;;;19.33;;
53925;SDS011;39836;52.754;6.866;2022-10-31T07:20:34;29.08;;;20.23;;
53925;SDS011;39836;52.754;6.866;2022-10-31T07:23:00;29.65;;;19.85;;
53925;SDS011;39836;52.754;6.866;2022-10-31T07:25:26;31.58;;;21.30;;
53925;SDS011;39836;52.754;6.866;2022-10-31T07:27:52;34.45;;;21.50;;
53925;SDS011;39836;52.754;6.866;2022-10-31T07:30:17;36.83;;;23.52;;
53925;SDS011;39836;52.754;6.866;2022-10-31T07:32:44;31.27;;;21.88;;
53925;SDS011;39836;52.754;6.866;2022-10-31T07:35:12;33.03;;;22.92;;
53925;SDS011;39836;52.754;6.866;2022-10-31T07:37:39;32.38;;;21.83;;
53925;SDS011;39836;52.754;6.866;2022-10-31T07:40:06;42.67;;;25.25;;
53925;SDS011;39836;52.754;6.866;2022-10-31T07:42:36;51.70;;;25.83;;
53925;SDS011;39836;52.754;6.866;2022-10-31T07:45:06;54.28;;;27.73;;
53925;SDS011;39836;52.754;6.866;2022-10-31T07:47:53;61.47;;;26.27;;
53925;SDS011;39836;52.754;6.866;2022-10-31T07:50:22;77.20;;;29.38;;
53925;SDS011;39836;52.754;6.866;2022-10-31T07:53:06;127.97;;;34.90;;
53925;SDS011;39836;52.754;6.866;2022-10-31T07:55:33;144.50;;;36.30;;
53925;SDS011;39836;52.754;6.866;2022-10-31T07:58:00;137.55;;;36.35;;
53925;SDS011;39836;52.754;6.866;2022-10-31T08:00:32;99.07;;;34.95;;
53925;SDS011;39836;52.754;6.866;2022-10-31T08:05:34;128.63;;;40.53;;
53925;SDS011;39836;52.754;6.866;2022-10-31T08:08:01;105.13;;;41.10;;
53925;SDS011;39836;52.754;6.866;2022-10-31T08:10:27;112.18;;;42.65;;
53925;SDS011;39836;52.754;6.866;2022-10-31T08:13:00;91.40;;;41.35;;
53925;SDS011;39836;52.754;6.866;2022-10-31T08:15:28;100.18;;;44.70;;
53925;SDS011;39836;52.754;6.866;2022-10-31T08:17:55;96.32;;;45.05;;
53925;SDS011;39836;52.754;6.866;2022-10-31T08:20:20;91.57;;;44.08;;
53925;SDS011;39836;52.754;6.866;2022-10-31T08:22:56;79.20;;;42.88;;
53925;SDS011;39836;52.754;6.866;2022-10-31T08:25:24;73.82;;;41.65;;
53925;SDS011;39836;52.754;6.866;2022-10-31T08:27:51;68.75;;;39.60;;
53925;SDS011;39836;52.754;6.866;2022-10-31T08:30:18;73.60;;;40.92;;
53925;SDS011;39836;52.754;6.866;2022-10-31T08:32:44;75.28;;;43.35;;
53925;SDS011;39836;52.754;6.866;2022-10-31T08:35:10;65.43;;;39.10;;
53925;SDS011;39836;52.754;6.866;2022-10-31T08:37:36;66.72;;;40.92;;
53925;SDS011;39836;52.754;6.866;2022-10-31T08:40:02;64.13;;;40.55;;
53925;SDS011;39836;52.754;6.866;2022-10-31T08:42:28;65.20;;;39.28;;
53925;SDS011;39836;52.754;6.866;2022-10-31T08:44:53;60.75;;;38.08;;
53925;SDS011;39836;52.754;6.866;2022-10-31T08:47:19;59.00;;;39.58;;
53925;SDS011;39836;52.754;6.866;2022-10-31T08:49:45;57.38;;;38.10;;
53925;SDS011;39836;52.754;6.866;2022-10-31T08:52:10;52.92;;;35.70;;
53925;SDS011;39836;52.754;6.866;2022-10-31T08:54:36;55.63;;;35.80;;
53925;SDS011;39836;52.754;6.866;2022-10-31T08:57:02;48.30;;;32.90;;
53925;SDS011;39836;52.754;6.866;2022-10-31T08:59:27;52.35;;;31.80;;
53925;SDS011;39836;52.754;6.866;2022-10-31T09:01:53;49.22;;;31.42;;
53925;SDS011;39836;52.754;6.866;2022-10-31T09:04:19;40.70;;;28.60;;
53925;SDS011;39836;52.754;6.866;2022-10-31T09:06:44;49.13;;;29.48;;
53925;SDS011;39836;52.754;6.866;2022-10-31T09:09:10;43.20;;;29.92;;
53925;SDS011;39836;52.754;6.866;2022-10-31T09:11:36;46.78;;;30.48;;
53925;SDS011;39836;52.754;6.866;2022-10-31T09:14:01;50.90;;;32.40;;
53925;SDS011;39836;52.754;6.866;2022-10-31T09:16:27;45.33;;;29.90;;
53925;SDS011;39836;52.754;6.866;2022-10-31T09:18:53;40.40;;;27.67;;
53925;SDS011;39836;52.754;6.866;2022-10-31T09:21:18;47.00;;;29.20;;
53925;SDS011;39836;52.754;6.866;2022-10-31T09:23:44;42.00;;;28.63;;
53925;SDS011;39836;52.754;6.866;2022-10-31T09:26:10;42.80;;;28.42;;
53925;SDS011;39836;52.754;6.866;2022-10-31T09:28:35;41.35;;;28.27;;
53925;SDS011;39836;52.754;6.866;2022-10-31T09:31:01;41.78;;;28.08;;
53925;SDS011;39836;52.754;6.866;2022-10-31T09:33:27;40.22;;;26.70;;
53925;SDS011;39836;52.754;6.866;2022-10-31T09:35:52;39.50;;;27.10;;
53925;SDS011;39836;52.754;6.866;2022-10-31T09:38:19;39.25;;;28.05;;
53925;SDS011;39836;52.754;6.866;2022-10-31T09:40:47;41.03;;;29.33;;
53925;SDS011;39836;52.754;6.866;2022-10-31T09:46:26;43.85;;;28.30;;
53925;SDS011;39836;52.754;6.866;2022-10-31T09:52:18;48.90;;;31.67;;
53925;SDS011;39836;52.754;6.866;2022-10-31T09:54:52;45.80;;;27.83;;
53925;SDS011;39836;52.754;6.866;2022-10-31T09:57:20;43.40;;;27.52;;
53925;SDS011;39836;52.754;6.866;2022-10-31T09:59:50;39.13;;;26.90;;
53925;SDS011;39836;52.754;6.866;2022-10-31T10:02:30;43.72;;;28.65;;
53925;SDS011;39836;52.754;6.866;2022-10-31T10:05:10;46.63;;;29.00;;
53925;SDS011;39836;52.754;6.866;2022-10-31T10:28:43;44.70;;;29.27;;
53925;SDS011;39836;52.754;6.866;2022-10-31T10:31:16;44.85;;;29.02;;
53925;SDS011;39836;52.754;6.866;2022-10-31T10:36:43;37.90;;;27.33;;
53925;SDS011;39836;52.754;6.866;2022-10-31T10:41:47;45.10;;;29.27;;
53925;SDS011;39836;52.754;6.866;2022-10-31T10:44:33;40.47;;;27.50;;
53925;SDS011;39836;52.754;6.866;2022-10-31T10:47:22;49.35;;;28.42;;
53925;SDS011;39836;52.754;6.866;2022-10-31T10:50:14;40.08;;;27.15;;
53925;SDS011;39836;52.754;6.866;2022-10-31T10:52:47;44.35;;;28.48;;
53925;SDS011;39836;52.754;6.866;2022-10-31T11:00:25;41.25;;;27.50;;
53925;SDS011;39836;52.754;6.866;2022-10-31T11:03:00;39.90;;;28.35;;
53925;SDS011;39836;52.754;6.866;2022-10-31T11:05:29;37.70;;;24.88;;
53925;SDS011;39836;52.754;6.866;2022-10-31T11:07:56;39.95;;;24.58;;
53925;SDS011;39836;52.754;6.866;2022-10-31T11:10:21;38.00;;;22.52;;
53925;SDS011;39836;52.754;6.866;2022-10-31T11:13:01;36.75;;;22.02;;
53925;SDS011;39836;52.754;6.866;2022-10-31T11:15:31;30.67;;;20.15;;
53925;SDS011;39836;52.754;6.866;2022-10-31T11:18:01;30.90;;;18.70;;
53925;SDS011;39836;52.754;6.866;2022-10-31T11:20:31;34.97;;;18.98;;
53925;SDS011;39836;52.754;6.866;2022-10-31T11:23:01;29.60;;;18.92;;
53925;SDS011;39836;52.754;6.866;2022-10-31T11:28:29;31.60;;;19.98;;
53925;SDS011;39836;52.754;6.866;2022-10-31T11:31:01;38.67;;;21.70;;
53925;SDS011;39836;52.754;6.866;2022-10-31T11:33:31;31.65;;;20.17;;
53925;SDS011;39836;52.754;6.866;2022-10-31T11:38:51;30.95;;;19.92;;
53925;SDS011;39836;52.754;6.866;2022-10-31T11:41:18;37.80;;;21.35;;
53925;SDS011;39836;52.754;6.866;2022-10-31T11:44:04;30.52;;;18.67;;
53925;SDS011;39836;52.754;6.866;2022-10-31T11:46:40;29.63;;;18.55;;
53925;SDS011;39836;52.754;6.866;2022-10-31T11:49:16;30.80;;;18.90;;
53925;SDS011;39836;52.754;6.866;2022-10-31T11:51:54;28.25;;;19.10;;
53925;SDS011;39836;52.754;6.866;2022-10-31T11:54:24;31.23;;;18.70;;
53925;SDS011;39836;52.754;6.866;2022-10-31T11:56:52;33.22;;;19.08;;
53925;SDS011;39836;52.754;6.866;2022-10-31T11:59:21;33.72;;;19.30;;
53925;SDS011;39836;52.754;6.866;2022-10-31T12:01:50;33.20;;;20.40;;
53925;SDS011;39836;52.754;6.866;2022-10-31T12:04:17;36.35;;;20.77;;
53925;SDS011;39836;52.754;6.866;2022-10-31T12:06:45;38.78;;;19.88;;
53925;SDS011;39836;52.754;6.866;2022-10-31T12:12:13;26.20;;;16.63;;
53925;SDS011;39836;52.754;6.866;2022-10-31T12:17:16;22.17;;;14.45;;
53925;SDS011;39836;52.754;6.866;2022-10-31T12:28:40;28.17;;;15.45;;
53925;SDS011;39836;52.754;6.866;2022-10-31T12:31:03;22.40;;;14.20;;
53925;SDS011;39836;52.754;6.866;2022-10-31T12:33:41;26.02;;;13.70;;
53925;SDS011;39836;52.754;6.866;2022-10-31T12:44:05;20.85;;;10.98;;
53925;SDS011;39836;52.754;6.866;2022-10-31T12:59:50;17.75;;;9.95;;
53925;SDS011;39836;52.754;6.866;2022-10-31T13:02:42;16.23;;;9.27;;
53925;SDS011;39836;52.754;6.866;2022-10-31T13:05:33;19.80;;;9.40;;
53925;SDS011;39836;52.754;6.866;2022-10-31T13:08:11;15.48;;;9.77;;
53925;SDS011;39836;52.754;6.866;2022-10-31T13:10:47;18.25;;;9.68;;
53925;SDS011;39836;52.754;6.866;2022-10-31T13:13:21;16.58;;;9.80;;
53925;SDS011;39836;52.754;6.866;2022-10-31T13:16:02;13.93;;;9.38;;
53925;SDS011;39836;52.754;6.866;2022-10-31T13:21:25;13.82;;;9.38;;
53925;SDS011;39836;52.754;6.866;2022-10-31T13:23:54;14.68;;;8.88;;
53925;SDS011;39836;52.754;6.866;2022-10-31T13:26:33;17.48;;;9.77;;
53925;SDS011;39836;52.754;6.866;2022-10-31T13:31:34;16.63;;;10.48;;
53925;SDS011;39836;52.754;6.866;2022-10-31T13:34:04;16.30;;;8.48;;
53925;SDS011;39836;52.754;6.866;2022-10-31T13:36:48;13.52;;;9.30;;
53925;SDS011;39836;52.754;6.866;2022-10-31T13:39:41;14.45;;;9.10;;
53925;SDS011;39836;52.754;6.866;2022-10-31T13:45:30;12.95;;;9.38;;
53925;SDS011;39836;52.754;6.866;2022-10-31T13:47:56;17.38;;;9.32;;
53925;SDS011;39836;52.754;6.866;2022-10-31T13:50:56;16.02;;;8.95;;
53925;SDS011;39836;52.754;6.866;2022-10-31T13:58:56;18.42;;;10.07;;
53925;SDS011;39836;52.754;6.866;2022-10-31T14:01:32;19.55;;;9.88;;
53925;SDS011;39836;52.754;6.866;2022-10-31T14:04:00;20.00;;;10.60;;
53925;SDS011;39836;52.754;6.866;2022-10-31T14:06:41;17.45;;;10.07;;
53925;SDS011;39836;52.754;6.866;2022-10-31T14:09:29;18.25;;;10.57;;
53925;SDS011;39836;52.754;6.866;2022-10-31T14:12:02;18.77;;;10.00;;
53925;SDS011;39836;52.754;6.866;2022-10-31T14:14:43;19.13;;;10.50;;
53925;SDS011;39836;52.754;6.866;2022-10-31T14:17:16;14.65;;;9.43;;
53925;SDS011;39836;52.754;6.866;2022-10-31T14:19:56;16.05;;;9.93;;
53925;SDS011;39836;52.754;6.866;2022-10-31T14:22:46;15.75;;;9.20;;
53925;SDS011;39836;52.754;6.866;2022-10-31T14:25:25;24.70;;;9.00;;
53925;SDS011;39836;52.754;6.866;2022-10-31T14:27:59;20.60;;;9.23;;
53925;SDS011;39836;52.754;6.866;2022-10-31T14:30:28;15.52;;;9.27;;
53925;SDS011;39836;52.754;6.866;2022-10-31T14:32:57;17.88;;;9.68;;
53925;SDS011;39836;52.754;6.866;2022-10-31T14:35:28;16.00;;;8.95;;
53925;SDS011;39836;52.754;6.866;2022-10-31T14:38:18;19.13;;;8.95;;
53925;SDS011;39836;52.754;6.866;2022-10-31T14:40:57;14.18;;;9.18;;
53925;SDS011;39836;52.754;6.866;2022-10-31T14:43:34;16.92;;;9.75;;
53925;SDS011;39836;52.754;6.866;2022-10-31T14:51:41;19.55;;;10.02;;
53925;SDS011;39836;52.754;6.866;2022-10-31T14:54:17;16.33;;;9.45;;
53925;SDS011;39836;52.754;6.866;2022-10-31T14:56:55;17.05;;;9.80;;
53925;SDS011;39836;52.754;6.866;2022-10-31T14:59:28;20.73;;;10.60;;
53925;SDS011;39836;52.754;6.866;2022-10-31T15:02:07;18.70;;;10.48;;
53925;SDS011;39836;52.754;6.866;2022-10-31T15:04:38;19.38;;;10.18;;
53925;SDS011;39836;52.754;6.866;2022-10-31T15:07:08;17.48;;;9.85;;
53925;SDS011;39836;52.754;6.866;2022-10-31T15:09:55;20.25;;;11.00;;
53925;SDS011;39836;52.754;6.866;2022-10-31T15:12:24;19.98;;;10.88;;
53925;SDS011;39836;52.754;6.866;2022-10-31T15:14:54;17.77;;;11.20;;
53925;SDS011;39836;52.754;6.866;2022-10-31T15:17:21;17.63;;;11.77;;
53925;SDS011;39836;52.754;6.866;2022-10-31T15:19:51;21.77;;;12.65;;
53925;SDS011;39836;52.754;6.866;2022-10-31T15:22:18;20.40;;;13.45;;
53925;SDS011;39836;52.754;6.866;2022-10-31T15:24:48;21.38;;;11.85;;
53925;SDS011;39836;52.754;6.866;2022-10-31T15:27:21;19.60;;;13.13;;
53925;SDS011;39836;52.754;6.866;2022-10-31T15:29:52;18.67;;;11.82;;
53925;SDS011;39836;52.754;6.866;2022-10-31T15:34:48;22.40;;;13.07;;
53925;SDS011;39836;52.754;6.866;2022-10-31T15:37:16;22.80;;;14.82;;
53925;SDS011;39836;52.754;6.866;2022-10-31T15:39:44;24.75;;;13.95;;
53925;SDS011;39836;52.754;6.866;2022-10-31T15:42:16;21.73;;;13.38;;
53925;SDS011;39836;52.754;6.866;2022-10-31T15:44:51;27.48;;;13.88;;
53925;SDS011;39836;52.754;6.866;2022-10-31T15:47:22;23.20;;;13.73;;
53925;SDS011;39836;52.754;6.866;2022-10-31T15:49:52;22.60;;;13.77;;
53925;SDS011;39836;52.754;6.866;2022-10-31T15:55:05;26.00;;;14.82;;
53925;SDS011;39836;52.754;6.866;2022-10-31T15:57:41;24.42;;;14.20;;
53925;SDS011;39836;52.754;6.866;2022-10-31T16:00:22;24.73;;;15.13;;
53925;SDS011;39836;52.754;6.866;2022-10-31T16:13:29;25.15;;;16.00;;
53925;SDS011;39836;52.754;6.866;2022-10-31T16:16:01;28.75;;;16.63;;
53925;SDS011;39836;52.754;6.866;2022-10-31T16:18:29;26.98;;;16.52;;
53925;SDS011;39836;52.754;6.866;2022-10-31T16:21:00;29.75;;;17.15;;
53925;SDS011;39836;52.754;6.866;2022-10-31T16:23:26;30.35;;;17.17;;
53925;SDS011;39836;52.754;6.866;2022-10-31T16:25:53;28.50;;;17.38;;
53925;SDS011;39836;52.754;6.866;2022-10-31T16:28:20;27.80;;;18.95;;
53925;SDS011;39836;52.754;6.866;2022-10-31T16:30:47;28.38;;;18.55;;
53925;SDS011;39836;52.754;6.866;2022-10-31T16:33:24;28.92;;;18.63;;
53925;SDS011;39836;52.754;6.866;2022-10-31T16:35:56;29.70;;;18.85;;
53925;SDS011;39836;52.754;6.866;2022-10-31T16:38:23;33.67;;;18.42;;
53925;SDS011;39836;52.754;6.866;2022-10-31T16:40:49;28.45;;;19.98;;
53925;SDS011;39836;52.754;6.866;2022-10-31T16:43:17;31.95;;;21.15;;
53925;SDS011;39836;52.754;6.866;2022-10-31T16:45:44;29.27;;;19.85;;
53925;SDS011;39836;52.754;6.866;2022-10-31T16:48:13;39.15;;;20.63;;
53925;SDS011;39836;52.754;6.866;2022-10-31T16:50:44;33.35;;;21.20;;
53925;SDS011;39836;52.754;6.866;2022-10-31T16:53:11;36.90;;;22.75;;
53925;SDS011;39836;52.754;6.866;2022-10-31T16:55:55;34.95;;;22.13;;
53925;SDS011;39836;52.754;6.866;2022-10-31T16:58:34;34.95;;;23.00;;
53925;SDS011;39836;52.754;6.866;2022-10-31T17:01:00;38.42;;;22.75;;
53925;SDS011;39836;52.754;6.866;2022-10-31T17:03:29;37.75;;;23.45;;
53925;SDS011;39836;52.754;6.866;2022-10-31T17:05:55;38.78;;;22.40;;
53925;SDS011;39836;52.754;6.866;2022-10-31T17:08:21;40.05;;;22.88;;
53925;SDS011;39836;52.754;6.866;2022-10-31T17:10:50;41.75;;;23.65;;
53925;SDS011;39836;52.754;6.866;2022-10-31T17:13:18;40.67;;;23.60;;
53925;SDS011;39836;52.754;6.866;2022-10-31T17:15:46;44.20;;;26.08;;